Time;durP1;ratioP1;P1;durP2;ratioP2;P2;SDS_P1;SDS_P2;PMS_P1;PMS_P2;Temp;Humidity;BMP_temperature;BMP_pressure;BME280_temperature;BME280_humidity;BME280_pressure;Samples;Min_cycle;Max_cycle;Signal;HPM_P1;HPM_P2
2022/04/22 05:02:38;;;;;;;33.03;29.40;;;6.30;99.90;;;;;;6193994;22;20547;-73
2022/04/22 05:05:06;;;;;;;31.87;28.73;;;6.40;99.90;;;;;;6209406;23;20422;-72
2022/04/22 05:07:33;;;;;;;33.40;30.10;;;6.50;99.90;;;;;;6209589;23;20423;-73
2022/04/22 05:10:00;;;;;;;30.40;27.43;;;6.50;99.90;;;;;;6212848;23;20778;-75
2022/04/22 05:12:27;;;;;;;31.60;28.40;;;6.60;99.90;;;;;;6217353;23;20421;-76
2022/04/22 05:14:53;;;;;;;33.00;29.63;;;6.70;99.90;;;;;;6215316;23;20415;-73
2022/04/22 05:17:20;;;;;;;32.93;28.80;;;6.90;99.90;;;;;;6215177;23;20451;-73
2022/04/22 05:19:48;;;;;;;30.60;27.50;;;7.30;99.90;;;;;;6214854;23;20420;-72
2022/04/22 05:22:15;;;;;;;29.33;26.37;;;7.70;99.90;;;;;;6213919;23;20904;-73
2022/04/22 05:24:42;;;;;;;30.30;27.50;;;8.10;99.90;;;;;;6213982;23;20746;-74
2022/04/22 05:27:08;;;;;;;29.07;26.37;;;8.50;99.90;;;;;;6214417;23;20412;-73
2022/04/22 05:32:37;;;;;;;34.17;26.33;;;9.30;99.90;;;;;;6214076;23;20919;-73
2022/04/22 05:35:07;;;;;;;40.93;26.10;;;9.50;99.90;;;;;;6214270;23;20403;-75
2022/04/22 05:37:45;;;;;;;26.93;24.30;;;9.80;99.90;;;;;;6213927;23;20445;-74
2022/04/22 05:40:13;;;;;;;24.37;22.20;;;10.00;99.90;;;;;;6214148;23;20409;-75
2022/04/22 05:42:40;;;;;;;26.90;24.70;;;10.00;99.90;;;;;;6214166;23;20419;-75
2022/04/22 05:45:09;;;;;;;26.77;24.47;;;10.20;99.90;;;;;;6213809;23;20918;-74
2022/04/22 05:47:36;;;;;;;26.97;24.37;;;10.30;99.90;;;;;;6214409;23;20497;-74
2022/04/22 05:50:05;;;;;;;27.03;24.57;;;10.60;99.90;;;;;;6214161;23;20434;-73
2022/04/22 05:52:33;;;;;;;26.43;23.63;;;10.60;99.90;;;;;;6214184;23;20413;-74
2022/04/22 05:55:02;;;;;;;28.87;25.90;;;10.90;99.90;;;;;;6213890;23;20752;-73
2022/04/22 05:57:30;;;;;;;26.47;24.00;;;11.20;99.90;;;;;;6213580;23;20448;-75
2022/04/22 05:59:56;;;;;;;24.40;22.33;;;11.40;99.90;;;;;;6213865;23;20440;-74
2022/04/22 06:02:23;;;;;;;26.93;24.03;;;11.50;99.90;;;;;;6213684;23;20436;-75
2022/04/22 06:04:50;;;;;;;27.00;24.60;;;11.90;99.90;;;;;;6213346;23;20443;-74
2022/04/22 06:07:18;;;;;;;28.07;25.27;;;12.50;99.90;;;;;;6213811;23;20416;-74
2022/04/22 06:12:29;;;;;;;27.97;25.47;;;13.00;99.90;;;;;;6213560;23;20408;-73
2022/04/22 06:14:59;;;;;;;28.00;25.23;;;13.20;99.90;;;;;;6213665;23;20427;-74
2022/04/22 06:17:27;;;;;;;28.47;26.13;;;13.40;99.90;;;;;;6213557;23;20435;-76
2022/04/22 06:19:54;;;;;;;28.80;25.40;;;13.60;99.90;;;;;;6213480;23;20436;-73
2022/04/22 06:22:22;;;;;;;27.13;24.80;;;13.70;99.90;;;;;;6214329;23;20408;-75
2022/04/22 06:24:49;;;;;;;25.07;23.07;;;13.90;99.90;;;;;;6214822;23;20408;-75
2022/04/22 06:27:23;;;;;;;27.17;25.07;;;14.10;99.90;;;;;;6213677;23;20766;-74
2022/04/22 06:29:50;;;;;;;27.47;24.87;;;14.20;99.90;;;;;;6213401;23;20883;-75
2022/04/22 06:32:17;;;;;;;27.50;25.20;;;14.50;99.90;;;;;;6212799;23;20421;-75
2022/04/22 06:34:45;;;;;;;29.07;26.60;;;14.80;99.90;;;;;;6213875;23;20420;-75
2022/04/22 06:37:12;;;;;;;26.40;24.50;;;15.40;98.80;;;;;;6213730;23;20567;-74
2022/04/22 06:47:52;;;;;;;29.00;26.40;;;15.60;96.70;;;;;;6213683;23;20419;-75
2022/04/22 06:50:20;;;;;;;26.63;24.50;;;16.50;96.50;;;;;;6214050;23;20401;-74
2022/04/22 06:52:47;;;;;;;28.20;25.60;;;17.00;94.60;;;;;;6213079;23;20895;-75
2022/04/22 06:55:17;;;;;;;28.13;25.93;;;17.20;94.00;;;;;;6213422;23;20713;-75
2022/04/22 06:57:48;;;;;;;31.20;28.50;;;17.30;93.70;;;;;;6213445;23;20819;-74
2022/04/22 07:00:16;;;;;;;28.03;25.93;;;17.50;93.00;;;;;;6213030;23;20559;-75
2022/04/22 07:02:43;;;;;;;29.20;26.90;;;17.80;92.00;;;;;;6212637;23;20429;-74
2022/04/22 07:05:11;;;;;;;26.77;24.77;;;18.20;91.40;;;;;;6213081;23;20398;-72
2022/04/22 07:07:38;;;;;;;28.33;26.13;;;18.10;91.10;;;;;;6213258;23;20771;-74
2022/04/22 07:10:06;;;;;;;29.07;26.80;;;18.50;90.90;;;;;;6212658;23;20903;-72
2022/04/22 07:13:18;;;;;;;29.33;26.80;;;18.40;89.90;;;;;;6212558;23;20409;-76
2022/04/22 07:15:49;;;;;;;29.23;26.83;;;18.40;89.30;;;;;;6184818;23;20415;-75
2022/04/22 07:18:17;;;;;;;29.83;27.53;;;18.50;89.20;;;;;;6212490;23;20492;-74
2022/04/22 07:20:44;;;;;;;29.70;27.37;;;18.40;87.90;;;;;;6213062;23;20411;-76
2022/04/22 07:23:13;;;;;;;29.83;27.43;;;18.60;89.20;;;;;;6212787;23;20431;-76
2022/04/22 07:25:43;;;;;;;29.70;27.40;;;19.10;86.60;;;;;;6212931;23;20409;-77
2022/04/22 07:28:11;;;;;;;28.23;25.93;;;18.90;86.40;;;;;;6213049;23;20444;-76
2022/04/22 07:30:39;;;;;;;29.33;27.13;;;18.60;86.70;;;;;;6213099;23;20719;-75
2022/04/22 07:33:08;;;;;;;27.83;25.63;;;18.30;87.50;;;;;;6212544;23;20440;-75
2022/04/22 07:35:35;;;;;;;28.77;26.57;;;18.30;87.60;;;;;;6212580;23;20419;-75
2022/04/22 07:38:03;;;;;;;29.97;27.77;;;18.90;86.00;;;;;;6212375;23;20441;-75
2022/04/22 07:40:30;;;;;;;27.50;25.30;;;18.30;86.80;;;;;;6212791;23;20766;-75
2022/04/22 07:48:29;;;;;;;28.97;26.87;;;19.70;83.60;;;;;;6173964;23;20387;-76
2022/04/22 07:50:56;;;;;;;29.60;27.30;;;20.00;81.30;;;;;;6212854;23;20404;-77
2022/04/22 07:53:23;;;;;;;30.10;27.70;;;20.20;81.30;;;;;;6213285;23;20409;-75
2022/04/22 07:55:50;;;;;;;29.73;27.33;;;19.90;81.00;;;;;;6213042;23;20401;-76
2022/04/22 07:58:17;;;;;;;31.60;29.10;;;19.90;81.00;;;;;;6212640;23;20448;-76
2022/04/22 08:00:45;;;;;;;29.93;27.63;;;20.20;80.10;;;;;;6212163;23;20924;-75
2022/04/22 08:03:12;;;;;;;28.90;26.80;;;20.20;79.70;;;;;;6212227;23;20437;-77
2022/04/22 08:05:40;;;;;;;31.43;28.97;;;20.40;79.30;;;;;;6212891;23;20769;-76
2022/04/22 08:08:08;;;;;;;27.83;25.93;;;20.30;78.80;;;;;;6212889;23;20405;-75
2022/04/22 08:10:35;;;;;;;28.50;26.50;;;20.60;78.50;;;;;;6212891;23;20409;-75
2022/04/22 08:13:02;;;;;;;29.20;27.00;;;21.00;77.70;;;;;;6212455;23;20496;-75
2022/04/22 08:15:30;;;;;;;30.30;28.03;;;21.40;75.30;;;;;;6212533;23;20427;-75
2022/04/22 08:17:57;;;;;;;30.93;28.53;;;21.30;75.10;;;;;;6211724;23;20451;-75
2022/04/22 08:20:23;;;;;;;30.60;27.90;;;21.40;74.60;;;;;;6212881;23;20416;-76
2022/04/22 08:22:51;;;;;;;28.97;26.90;;;21.30;74.60;;;;;;6212758;23;20416;-76
2022/04/22 08:25:18;;;;;;;30.27;27.70;;;21.80;73.90;;;;;;6212305;23;20413;-77
2022/04/22 08:27:46;;;;;;;27.63;25.60;;;22.10;72.30;;;;;;6212880;23;20415;-76
2022/04/22 08:30:13;;;;;;;29.50;27.20;;;22.30;71.30;;;;;;6213495;23;20459;-76
2022/04/22 08:32:40;;;;;;;28.50;26.50;;;22.70;70.20;;;;;;6213659;23;20748;-76
2022/04/22 08:35:09;;;;;;;28.70;26.80;;;22.10;70.00;;;;;;6212649;23;20416;-75
2022/04/22 08:37:37;;;;;;;27.73;25.70;;;22.40;69.60;;;;;;6212764;23;20452;-76
2022/04/22 08:40:06;;;;;;;30.43;28.20;;;22.80;67.20;;;;;;6212036;23;20793;-76
2022/04/22 08:42:35;;;;;;;27.60;25.67;;;22.50;67.00;;;;;;6212460;23;20413;-76
2022/04/22 08:45:03;;;;;;;29.07;26.57;;;22.20;68.90;;;;;;6211618;23;20416;-75
2022/04/22 08:50:16;;;;;;;29.70;27.20;;;22.20;69.10;;;;;;6212120;23;20427;-77
2022/04/22 08:52:46;;;;;;;28.47;26.47;;;22.10;69.50;;;;;;6212126;23;20413;-76
2022/04/22 08:55:15;;;;;;;28.93;26.87;;;22.20;68.60;;;;;;6212127;23;20411;-75
2022/04/22 08:57:43;;;;;;;29.53;27.10;;;23.00;67.20;;;;;;6212350;23;20479;-76
2022/04/22 09:00:10;;;;;;;28.10;25.93;;;22.90;66.30;;;;;;6212244;23;20443;-75
2022/04/22 09:02:38;;;;;;;26.87;25.00;;;22.80;65.90;;;;;;6211998;23;20763;-76
2022/04/22 09:05:07;;;;;;;27.90;25.77;;;22.80;65.70;;;;;;6212331;23;20403;-76
2022/04/22 09:07:33;;;;;;;28.07;26.10;;;22.40;66.10;;;;;;6212240;23;20404;-76
2022/04/22 09:10:01;;;;;;;27.50;25.43;;;22.40;67.40;;;;;;6211628;23;20405;-76
2022/04/22 09:12:29;;;;;;;28.17;26.20;;;22.30;66.50;;;;;;6211845;23;20495;-77
2022/04/22 09:14:57;;;;;;;25.77;23.87;;;21.60;68.70;;;;;;6212092;23;20427;-76
2022/04/22 09:17:25;;;;;;;27.50;25.60;;;22.10;67.80;;;;;;6212174;23;20451;-76
2022/04/22 09:19:53;;;;;;;27.13;25.23;;;22.30;67.70;;;;;;6212418;23;20415;-77
2022/04/22 09:22:21;;;;;;;26.33;24.43;;;23.20;65.50;;;;;;6212808;23;20437;-77
2022/04/22 09:24:50;;;;;;;28.23;26.23;;;23.30;64.70;;;;;;6212535;23;20405;-78
2022/04/22 09:27:18;;;;;;;26.53;24.73;;;23.40;63.60;;;;;;6212603;23;20458;-77
2022/04/22 09:29:53;;;;;;;25.90;24.17;;;23.40;64.10;;;;;;6212887;23;20616;-78
2022/04/22 09:32:26;;;;;;;25.70;23.90;;;23.20;62.80;;;;;;6212169;23;20951;-76
2022/04/22 09:34:56;;;;;;;27.87;25.77;;;23.00;63.10;;;;;;6213080;23;20732;-75
2022/04/22 09:42:54;;;;;;;25.80;23.50;;;23.40;64.10;;;;;;6212094;23;20371;-75
2022/04/22 09:45:23;;;;;;;27.20;25.50;;;24.50;61.80;;;;;;6212053;23;20404;-76
2022/04/22 09:47:59;;;;;;;27.60;25.80;;;25.40;58.80;;;;;;6211728;23;20405;-76
2022/04/22 09:50:42;;;;;;;26.17;24.37;;;25.20;58.20;;;;;;6212562;23;20444;-76
2022/04/22 09:53:10;;;;;;;25.67;23.80;;;24.20;60.20;;;;;;6208356;23;20444;-75
2022/04/22 09:55:46;;;;;;;26.63;24.80;;;24.70;60.80;;;;;;6212961;23;20451;-75
2022/04/22 09:58:13;;;;;;;26.00;24.10;;;23.50;60.40;;;;;;6213590;23;20435;-75
2022/04/22 10:00:41;;;;;;;25.27;23.47;;;23.40;61.60;;;;;;6213324;23;20872;-75
2022/04/22 10:03:10;;;;;;;25.83;24.20;;;23.20;62.20;;;;;;6213617;23;20440;-76
2022/04/22 10:05:37;;;;;;;26.47;24.67;;;24.00;60.90;;;;;;6213589;23;20432;-76
2022/04/22 10:08:04;;;;;;;25.80;24.00;;;24.60;59.60;;;;;;6213743;23;20413;-76
2022/04/22 10:10:33;;;;;;;25.60;23.50;;;23.80;59.70;;;;;;6213458;23;20405;-76
2022/04/22 10:13:03;;;;;;;25.20;23.53;;;23.40;61.00;;;;;;6213506;23;20409;-76
2022/04/22 10:15:33;;;;;;;24.43;22.70;;;24.30;60.10;;;;;;6213599;23;20443;-78
2022/04/22 10:18:02;;;;;;;24.40;22.60;;;24.70;59.40;;;;;;6213402;23;21142;-78
2022/04/22 10:20:30;;;;;;;25.73;23.93;;;23.70;60.10;;;;;;6213546;23;20788;-75
2022/04/22 10:22:58;;;;;;;23.50;21.80;;;23.00;62.50;;;;;;6213101;23;20415;-76
2022/04/22 10:25:25;;;;;;;27.23;25.33;;;24.10;61.70;;;;;;6213661;23;20412;-76
2022/04/22 10:27:53;;;;;;;24.63;22.83;;;24.20;59.80;;;;;;6214175;23;20409;-76
2022/04/22 10:30:21;;;;;;;25.87;24.17;;;25.00;58.80;;;;;;6213738;23;20420;-77
2022/04/22 10:32:49;;;;;;;24.90;23.30;;;24.60;57.80;;;;;;6213428;23;20432;-75
2022/04/22 10:35:17;;;;;;;25.30;23.43;;;23.90;59.50;;;;;;6213107;23;20427;-76
2022/04/22 10:37:45;;;;;;;25.87;24.13;;;24.50;59.00;;;;;;6213098;23;20454;-77
2022/04/22 10:40:19;;;;;;;24.53;22.77;;;25.30;57.50;;;;;;6213240;23;20919;-75
2022/04/22 10:42:47;;;;;;;24.43;22.83;;;24.60;57.90;;;;;;6213361;23;20407;-76
2022/04/22 10:47:59;;;;;;;24.07;22.57;;;25.70;56.90;;;;;;6213491;23;20927;-77
2022/04/22 10:50:32;;;;;;;23.60;22.10;;;26.40;55.90;;;;;;6213821;23;20433;-76
2022/04/22 10:53:04;;;;;;;24.67;23.10;;;26.50;54.30;;;;;;6213218;23;20483;-74
2022/04/22 10:55:33;;;;;;;23.47;21.97;;;25.80;54.50;;;;;;6213286;23;20421;-75
2022/04/22 10:58:25;;;;;;;25.00;23.43;;;24.90;56.30;;;;;;6213031;23;20444;-77
2022/04/22 11:00:55;;;;;;;26.00;24.40;;;23.50;58.50;;;;;;6213576;23;20496;-74
2022/04/22 11:03:23;;;;;;;23.27;21.77;;;22.50;59.80;;;;;;6213343;23;20441;-76
2022/04/22 11:05:53;;;;;;;26.10;24.30;;;22.10;62.70;;;;;;6213246;23;20416;-75
2022/04/22 11:08:26;;;;;;;26.10;24.50;;;22.50;61.10;;;;;;6212625;23;20925;-75
2022/04/22 11:11:05;;;;;;;25.40;23.70;;;23.10;60.50;;;;;;6213620;23;20397;-75
2022/04/22 11:13:34;;;;;;;24.53;22.73;;;23.20;60.10;;;;;;6213069;23;20451;-76
2022/04/22 11:16:06;;;;;;;24.37;22.90;;;23.40;60.00;;;;;;6212501;23;20404;-76
2022/04/22 11:18:33;;;;;;;23.73;22.20;;;24.10;58.90;;;;;;6212994;23;20457;-75
2022/04/22 11:21:03;;;;;;;25.10;23.50;;;24.30;58.20;;;;;;6213116;23;20413;-76
2022/04/22 11:23:38;;;;;;;25.97;24.17;;;24.60;57.90;;;;;;6212711;23;20908;-75
2022/04/22 11:26:05;;;;;;;23.83;22.37;;;24.80;56.90;;;;;;6213051;23;20412;-76
2022/04/22 11:28:36;;;;;;;24.63;23.10;;;24.50;57.60;;;;;;6213021;23;20404;-77
2022/04/22 11:31:05;;;;;;;23.90;22.30;;;24.50;57.30;;;;;;6213132;23;20408;-76
2022/04/22 11:33:44;;;;;;;22.80;21.50;;;24.90;57.50;;;;;;6213088;23;20408;-76
2022/04/22 11:36:12;;;;;;;22.43;21.03;;;25.90;56.00;;;;;;6213082;23;20393;-77
2022/04/22 11:38:46;;;;;;;24.70;23.07;;;26.00;55.00;;;;;;6212523;23;20451;-76
2022/04/22 11:41:13;;;;;;;24.70;22.93;;;26.20;54.90;;;;;;6212819;23;20393;-76
2022/04/22 11:43:39;;;;;;;24.47;22.77;;;26.00;54.60;;;;;;6212784;23;20413;-75
2022/04/22 11:46:06;;;;;;;24.17;22.67;;;26.40;54.10;;;;;;6212435;23;20413;-76
2022/04/22 11:48:33;;;;;;;24.87;23.40;;;25.80;54.70;;;;;;6212660;23;20401;-76
2022/04/22 11:51:00;;;;;;;23.90;22.20;;;25.90;55.10;;;;;;6212547;23;20409;-75
2022/04/22 11:53:32;;;;;;;25.60;23.93;;;26.60;53.80;;;;;;6212613;23;20811;-74
2022/04/22 11:56:01;;;;;;;24.47;23.07;;;26.70;52.60;;;;;;6212953;23;20393;-75
2022/04/22 11:58:28;;;;;;;26.70;25.10;;;26.30;54.10;;;;;;6212123;23;20451;-75
2022/04/22 12:06:25;;;;;;;24.97;23.60;;;25.80;54.30;;;;;;6212613;23;20433;-77
2022/04/22 12:08:54;;;;;;;24.77;23.17;;;25.90;54.80;;;;;;6212899;23;20525;-75
2022/04/22 12:11:22;;;;;;;24.03;22.63;;;25.80;54.10;;;;;;6212807;23;20409;-76
2022/04/22 12:13:50;;;;;;;25.80;24.10;;;26.50;53.80;;;;;;6212472;23;20408;-76
2022/04/22 12:16:20;;;;;;;24.97;23.27;;;26.00;53.10;;;;;;6211974;23;20409;-76
2022/04/22 12:18:49;;;;;;;24.50;22.90;;;24.70;55.20;;;;;;6211924;23;20451;-77
2022/04/22 12:21:17;;;;;;;23.33;21.93;;;23.90;57.10;;;;;;6212492;23;20416;-75
2022/04/22 12:23:45;;;;;;;24.70;23.20;;;23.20;58.20;;;;;;6212483;23;20413;-75
2022/04/22 12:26:18;;;;;;;25.17;23.57;;;22.90;59.30;;;;;;6212363;23;20405;-76
2022/04/22 12:29:02;;;;;;;22.90;21.40;;;23.10;58.50;;;;;;6212450;23;20412;-74
2022/04/22 12:31:31;;;;;;;23.73;22.20;;;23.40;58.20;;;;;;6212391;23;20396;-76
2022/04/22 12:33:59;;;;;;;24.50;22.57;;;24.20;57.20;;;;;;6211893;23;21117;-76
2022/04/22 12:36:27;;;;;;;24.23;22.70;;;24.90;56.30;;;;;;6212035;23;20405;-76
2022/04/22 12:38:53;;;;;;;23.60;21.90;;;24.90;55.80;;;;;;6212237;23;20444;-76
2022/04/22 12:41:23;;;;;;;25.23;23.53;;;24.90;55.90;;;;;;6212497;23;20404;-76
2022/04/22 12:43:52;;;;;;;23.10;21.70;;;25.80;54.50;;;;;;6212284;23;20412;-75
2022/04/22 12:52:12;;;;;;;22.30;21.00;;;25.30;53.90;;;;;;6212790;23;20372;-76
2022/04/22 12:54:41;;;;;;;21.37;20.17;;;25.90;53.70;;;;;;6212344;23;20492;-76
2022/04/22 12:57:11;;;;;;;20.63;19.20;;;25.30;53.40;;;;;;6212524;23;20528;-76
2022/04/22 12:59:42;;;;;;;19.27;18.23;;;24.90;53.40;;;;;;6212258;23;20472;-76
2022/04/22 13:02:10;;;;;;;19.43;18.23;;;25.10;53.40;;;;;;6211999;23;20487;-76
2022/04/22 13:04:51;;;;;;;19.43;18.33;;;24.80;53.20;;;;;;6212027;23;20443;-75
2022/04/22 13:07:18;;;;;;;19.10;18.10;;;25.10;52.70;;;;;;6211911;23;20405;-76
2022/04/22 13:09:45;;;;;;;20.77;19.43;;;25.60;52.40;;;;;;6212262;23;20440;-76
2022/04/22 13:12:13;;;;;;;19.90;18.80;;;25.80;52.20;;;;;;6212177;23;20492;-75
2022/04/22 13:14:40;;;;;;;21.03;19.80;;;25.60;51.90;;;;;;6212059;23;20405;-77
2022/04/22 13:17:07;;;;;;;21.10;19.73;;;25.00;52.80;;;;;;6213138;23;20416;-76
2022/04/22 13:19:34;;;;;;;20.30;19.20;;;23.60;54.60;;;;;;6212154;23;20440;-76
2022/04/22 13:22:00;;;;;;;19.50;18.40;;;23.20;55.80;;;;;;6212605;23;20413;-76
2022/04/22 13:24:27;;;;;;;19.30;18.10;;;22.40;56.50;;;;;;6212222;23;20412;-76
2022/04/22 13:26:54;;;;;;;19.17;18.13;;;22.50;56.80;;;;;;6212525;23;20415;-74
2022/04/22 13:29:22;;;;;;;19.53;18.47;;;23.20;57.00;;;;;;6212862;23;20415;-75
2022/04/22 13:31:49;;;;;;;21.20;19.90;;;23.40;55.80;;;;;;6214797;23;20409;-75
2022/04/22 13:34:16;;;;;;;20.63;19.40;;;24.20;55.60;;;;;;6214165;23;20409;-75
2022/04/22 13:36:44;;;;;;;21.13;19.80;;;25.10;54.20;;;;;;6213666;23;20892;-76
2022/04/22 13:39:11;;;;;;;22.40;21.10;;;25.60;53.90;;;;;;6214069;23;20448;-76
2022/04/22 13:41:37;;;;;;;21.30;20.00;;;25.50;53.00;;;;;;6213893;23;20931;-75
2022/04/22 13:44:05;;;;;;;21.97;20.67;;;25.60;53.50;;;;;;6214089;23;20900;-76
2022/04/22 13:54:47;;;;;;;19.37;18.23;;;24.70;53.90;;;;;;6213691;23;20372;-75
2022/04/22 13:57:14;;;;;;;20.90;19.70;;;24.60;53.00;;;;;;6213653;23;20416;-76
2022/04/22 13:59:41;;;;;;;19.77;18.77;;;23.90;53.70;;;;;;6213779;23;20447;-75
2022/04/22 14:02:09;;;;;;;20.67;19.20;;;23.10;55.40;;;;;;6213732;23;20432;-76
2022/04/22 14:04:37;;;;;;;20.07;18.80;;;23.30;55.90;;;;;;6213459;23;20447;-77
2022/04/22 14:07:06;;;;;;;19.50;18.37;;;23.50;55.30;;;;;;6213905;23;20439;-75
2022/04/22 14:09:33;;;;;;;20.97;19.57;;;23.90;55.30;;;;;;6213858;23;20409;-75
2022/04/22 14:12:00;;;;;;;20.90;19.70;;;24.20;54.90;;;;;;6213586;23;20412;-75
2022/04/22 14:14:27;;;;;;;20.43;18.60;;;23.80;54.40;;;;;;6213443;23;20409;-76
2022/04/22 14:16:53;;;;;;;20.17;18.97;;;23.00;55.50;;;;;;6213498;23;20711;-74
2022/04/22 14:19:22;;;;;;;19.53;18.43;;;22.80;56.30;;;;;;6213585;23;20476;-74
2022/04/22 14:21:48;;;;;;;18.53;17.40;;;22.90;56.70;;;;;;6213900;23;20404;-75
2022/04/22 14:24:15;;;;;;;20.40;19.20;;;23.60;55.70;;;;;;6212945;23;20413;-75
2022/04/22 14:26:42;;;;;;;20.27;19.10;;;23.80;55.50;;;;;;6213141;23;20436;-75
2022/04/22 14:29:09;;;;;;;19.60;18.50;;;23.40;55.10;;;;;;6213170;23;20408;-76
2022/04/22 14:31:35;;;;;;;19.57;18.47;;;23.50;55.00;;;;;;6213714;23;20413;-75
2022/04/22 14:34:03;;;;;;;20.13;18.63;;;22.90;55.50;;;;;;6213191;23;20408;-76
2022/04/22 14:36:31;;;;;;;21.27;19.87;;;22.00;56.80;;;;;;6213319;23;20508;-75
2022/04/22 14:38:58;;;;;;;19.90;18.60;;;21.50;57.20;;;;;;6213096;23;20736;-75
2022/04/22 14:41:24;;;;;;;20.73;19.60;;;21.30;57.80;;;;;;6212837;23;20428;-75
2022/04/22 14:43:51;;;;;;;19.20;18.10;;;21.10;58.00;;;;;;6213180;23;20413;-75
2022/04/22 14:46:18;;;;;;;20.53;19.30;;;21.20;58.70;;;;;;6212867;23;20416;-76
2022/04/22 14:48:45;;;;;;;20.43;19.30;;;20.90;58.20;;;;;;6213242;23;20405;-76
2022/04/22 14:51:12;;;;;;;19.70;18.57;;;20.70;58.60;;;;;;6213022;23;20405;-75
2022/04/22 14:53:40;;;;;;;20.50;19.20;;;20.50;59.00;;;;;;6213570;23;20409;-74
2022/04/22 14:56:07;;;;;;;20.50;18.90;;;20.50;58.90;;;;;;6213192;23;20409;-75
2022/04/22 14:58:34;;;;;;;18.93;17.83;;;20.60;58.90;;;;;;6213077;23;20752;-75
2022/04/22 15:01:00;;;;;;;19.57;18.27;;;20.60;59.50;;;;;;6212945;23;20428;-75
2022/04/22 15:03:27;;;;;;;18.80;17.60;;;20.60;60.20;;;;;;6212484;23;20440;-74
2022/04/22 15:05:54;;;;;;;19.50;18.20;;;20.80;58.60;;;;;;6213147;23;20408;-75
2022/04/22 15:08:21;;;;;;;18.47;17.47;;;20.70;58.50;;;;;;6212956;23;20415;-75
2022/04/22 15:10:49;;;;;;;19.00;17.77;;;20.80;58.60;;;;;;6213038;23;20732;-76
2022/04/22 15:13:16;;;;;;;19.10;17.70;;;20.60;58.80;;;;;;6213122;23;20405;-77
2022/04/22 15:15:44;;;;;;;19.13;18.03;;;20.70;59.10;;;;;;6212478;23;20415;-76
2022/04/22 15:26:24;;;;;;;18.10;17.00;;;20.50;58.80;;;;;;6213036;23;20377;-76
2022/04/22 15:28:51;;;;;;;19.00;17.83;;;20.50;59.50;;;;;;6213122;23;20756;-76
2022/04/22 15:31:18;;;;;;;18.80;17.43;;;20.50;59.50;;;;;;6212788;23;20421;-76
2022/04/22 15:33:45;;;;;;;19.03;18.03;;;20.50;58.90;;;;;;6212740;23;20416;-76
2022/04/22 15:36:13;;;;;;;20.10;18.70;;;20.50;58.70;;;;;;6212727;23;20408;-77
2022/04/22 15:38:42;;;;;;;19.17;18.07;;;20.50;59.30;;;;;;6212692;23;20405;-76
2022/04/22 15:41:11;;;;;;;17.67;16.60;;;20.40;59.20;;;;;;6212579;23;20976;-76
2022/04/22 15:43:40;;;;;;;16.70;15.60;;;20.50;59.80;;;;;;6212661;23;20405;-76
2022/04/22 15:46:06;;;;;;;19.07;18.07;;;20.60;59.10;;;;;;6212900;23;20413;-76
2022/04/22 15:48:34;;;;;;;17.17;16.27;;;20.60;58.00;;;;;;6212371;23;20419;-76
2022/04/22 15:51:01;;;;;;;19.43;18.23;;;20.60;57.70;;;;;;6212530;23;20495;-76
2022/04/22 15:53:28;;;;;;;18.50;17.40;;;20.60;57.60;;;;;;6212384;23;20404;-76
2022/04/22 15:55:55;;;;;;;18.43;17.13;;;20.60;57.20;;;;;;6212822;23;20412;-76
2022/04/22 15:58:22;;;;;;;17.87;16.77;;;20.60;57.70;;;;;;6213003;23;20444;-76
2022/04/22 16:00:50;;;;;;;17.10;16.00;;;20.70;59.40;;;;;;6212174;23;20444;-76
2022/04/22 16:03:16;;;;;;;18.70;17.70;;;20.80;59.30;;;;;;6211992;23;20450;-76
2022/04/22 16:05:43;;;;;;;18.93;17.80;;;21.00;59.30;;;;;;6212063;23;20416;-76
2022/04/22 16:08:12;;;;;;;18.27;17.27;;;20.90;59.10;;;;;;6212306;23;20419;-76
2022/04/22 16:10:39;;;;;;;17.83;16.67;;;20.80;59.20;;;;;;6213141;23;20408;-76
2022/04/22 16:15:52;;;;;;;17.83;16.80;;;21.00;59.20;;;;;;6213673;23;20469;-75
2022/04/22 16:18:22;;;;;;;19.03;17.83;;;21.10;59.00;;;;;;6213101;23;20750;-75
2022/04/22 16:20:49;;;;;;;16.73;15.83;;;21.40;59.30;;;;;;6213785;23;20470;-75
2022/04/22 16:23:15;;;;;;;17.20;16.20;;;21.20;57.70;;;;;;6214064;23;20408;-76
2022/04/22 16:25:42;;;;;;;18.30;17.10;;;21.10;58.00;;;;;;6213100;23;20427;-76
2022/04/22 16:28:09;;;;;;;19.40;18.00;;;21.00;57.80;;;;;;6213129;23;20416;-76
2022/04/22 16:30:37;;;;;;;18.03;16.77;;;20.80;58.10;;;;;;6213761;23;20419;-76
2022/04/22 16:33:06;;;;;;;17.83;16.80;;;20.60;58.30;;;;;;6186415;23;20453;-76
2022/04/22 16:35:33;;;;;;;16.83;15.97;;;20.40;59.10;;;;;;6212943;23;20403;-76
2022/04/22 16:38:00;;;;;;;16.53;15.63;;;20.30;59.80;;;;;;6212435;23;20658;-76
2022/04/22 16:40:27;;;;;;;16.90;15.97;;;20.10;59.80;;;;;;6212226;23;20444;-76
2022/04/22 16:42:55;;;;;;;17.20;16.40;;;20.10;59.60;;;;;;6212613;23;20409;-76
2022/04/22 16:45:23;;;;;;;18.00;17.03;;;19.90;60.50;;;;;;6212798;23;20413;-76
2022/04/22 16:47:49;;;;;;;17.40;16.50;;;19.90;59.50;;;;;;6212655;23;20440;-75
2022/04/22 16:50:17;;;;;;;17.33;16.33;;;19.80;60.00;;;;;;6212470;23;20409;-76
2022/04/22 16:52:45;;;;;;;17.67;16.67;;;19.70;60.40;;;;;;6212197;23;20412;-76
2022/04/22 16:55:13;;;;;;;16.67;15.77;;;19.70;61.00;;;;;;6212039;23;20409;-75
2022/04/22 16:57:40;;;;;;;17.40;16.50;;;19.70;61.60;;;;;;6212139;23;20942;-75
2022/04/22 17:00:09;;;;;;;16.33;15.43;;;19.50;62.10;;;;;;6212542;23;20440;-75
2022/04/22 17:02:36;;;;;;;17.67;16.47;;;19.40;62.50;;;;;;6212218;23;20491;-75
2022/04/22 17:05:04;;;;;;;17.73;16.70;;;19.40;63.00;;;;;;6212515;23;20439;-75
2022/04/22 17:07:32;;;;;;;17.83;16.73;;;19.30;63.70;;;;;;6214148;23;20412;-75
2022/04/22 17:10:00;;;;;;;16.83;15.93;;;19.10;64.50;;;;;;6213882;23;20899;-75
2022/04/22 17:12:27;;;;;;;16.53;15.63;;;19.00;65.20;;;;;;6214233;23;20412;-75
2022/04/22 17:23:10;;;;;;;19.47;17.97;;;18.70;67.80;;;;;;6215057;23;20376;-75
2022/04/22 17:25:37;;;;;;;17.50;16.40;;;18.70;68.10;;;;;;6214612;23;20416;-76
2022/04/22 17:28:04;;;;;;;16.77;15.97;;;18.70;67.90;;;;;;6214115;23;20411;-76
2022/04/22 17:30:31;;;;;;;15.40;14.50;;;18.70;68.10;;;;;;6214643;23;20408;-77
2022/04/22 17:32:58;;;;;;;16.87;15.87;;;18.70;68.20;;;;;;6214670;23;20719;-76
2022/04/22 17:35:25;;;;;;;16.23;15.43;;;18.70;68.30;;;;;;6215041;23;20416;-76
2022/04/22 17:37:51;;;;;;;16.27;15.30;;;18.60;68.70;;;;;;6214499;23;20419;-77
2022/04/22 17:40:21;;;;;;;16.07;15.10;;;18.60;68.90;;;;;;6213430;23;20441;-76
2022/04/22 17:42:48;;;;;;;16.70;15.60;;;18.60;68.80;;;;;;6213656;23;20408;-76
2022/04/22 17:45:16;;;;;;;16.37;15.43;;;18.60;68.30;;;;;;6214227;23;20466;-76
2022/04/22 17:47:43;;;;;;;15.83;15.03;;;18.60;68.60;;;;;;6214201;23;20412;-77
2022/04/22 17:50:10;;;;;;;16.20;15.30;;;18.50;68.80;;;;;;6213625;23;20928;-77
2022/04/22 17:52:37;;;;;;;15.87;14.97;;;18.40;68.60;;;;;;6213532;23;20408;-76
2022/04/22 17:55:05;;;;;;;17.13;16.10;;;18.40;69.00;;;;;;6213653;23;20500;-76
2022/04/22 17:57:35;;;;;;;17.53;16.27;;;18.40;69.30;;;;;;6213886;23;20420;-77
2022/04/22 18:00:02;;;;;;;15.60;14.67;;;18.20;69.50;;;;;;6213714;23;20432;-75
2022/04/22 18:02:29;;;;;;;16.27;15.37;;;18.20;70.20;;;;;;6213958;23;20750;-75
2022/04/22 18:04:56;;;;;;;15.87;15.17;;;18.10;70.00;;;;;;6213055;23;20975;-74
2022/04/22 18:07:23;;;;;;;15.73;14.90;;;18.00;70.50;;;;;;6213952;23;20404;-75
2022/04/22 18:09:50;;;;;;;16.40;15.53;;;17.90;70.60;;;;;;6213652;23;20697;-75
2022/04/22 18:12:17;;;;;;;15.23;14.33;;;17.80;71.30;;;;;;6213707;23;20500;-75
2022/04/22 18:17:30;;;;;;;16.00;15.10;;;17.80;72.20;;;;;;6213135;23;20737;-75
2022/04/22 18:19:57;;;;;;;15.03;14.23;;;17.80;72.00;;;;;;6212898;23;20441;-74
2022/04/22 18:22:23;;;;;;;15.63;14.70;;;17.80;72.60;;;;;;6213202;23;20411;-77
2022/04/22 18:24:50;;;;;;;16.23;15.43;;;17.70;72.50;;;;;;6213058;23;20412;-74
2022/04/22 18:27:18;;;;;;;14.97;14.20;;;17.70;72.80;;;;;;6212908;23;20409;-75
2022/04/22 18:29:46;;;;;;;15.37;14.47;;;17.70;73.30;;;;;;6213114;23;20467;-76
2022/04/22 18:32:13;;;;;;;14.73;13.93;;;17.60;73.40;;;;;;6213631;23;20431;-76
2022/04/22 18:34:40;;;;;;;15.03;14.13;;;17.60;74.00;;;;;;6213069;23;20413;-75
2022/04/22 18:37:07;;;;;;;16.00;15.00;;;17.60;74.20;;;;;;6212926;23;20415;-75
2022/04/22 18:39:34;;;;;;;16.73;15.73;;;17.60;74.50;;;;;;6213373;23;20740;-75
2022/04/22 18:42:00;;;;;;;16.47;15.27;;;17.50;74.60;;;;;;6212735;23;20508;-75
2022/04/22 18:44:27;;;;;;;15.93;14.93;;;17.50;75.30;;;;;;6212862;23;20409;-74
2022/04/22 18:46:55;;;;;;;15.90;14.60;;;17.40;75.50;;;;;;6212863;23;20416;-75